createdAt,value
2023-04-13T00:02:42.041Z,81.21
2023-04-13T00:05:53.966Z,81.67
2023-04-13T00:09:10.866Z,81.61
2023-04-13T00:12:21.551Z,81.66
2023-04-13T00:15:28.606Z,81.89
2023-04-13T00:18:35.705Z,80.86
2023-04-13T00:21:42.430Z,81.40
2023-04-13T00:24:54.824Z,81.61
2023-04-13T00:28:03.338Z,81.32
2023-04-13T00:31:10.590Z,81.34
2023-04-13T00:34:16.622Z,81.36
2023-04-13T00:37:24.149Z,81.78
2023-04-13T00:40:32.676Z,81.91
2023-04-13T00:43:39.466Z,82.24
2023-04-13T00:46:46.779Z,82.20
2023-04-13T00:49:54.394Z,82.46
2023-04-13T00:53:00.798Z,82.30
2023-04-13T00:56:12.461Z,82.42
2023-04-13T00:59:21.294Z,82.58
2023-04-13T01:02:29.486Z,82.86
2023-04-13T01:05:52.055Z,82.90
2023-04-13T01:09:09.928Z,83.05
2023-04-13T01:12:29.832Z,82.94
2023-04-13T01:15:46.649Z,83.50
2023-04-13T01:18:58.382Z,83.84
2023-04-13T01:22:08.009Z,83.51
2023-04-13T01:25:34.751Z,83.49
2023-04-13T01:28:44.743Z,84.13
2023-04-13T01:31:53.134Z,83.91
2023-04-13T01:35:00.086Z,83.46
2023-04-13T01:38:10.298Z,83.21
2023-04-13T01:41:16.556Z,82.60
2023-04-13T01:44:29.527Z,82.62
2023-04-13T01:47:41.723Z,82.38
2023-04-13T01:51:22.058Z,82.13
2023-04-13T01:54:36.364Z,81.67
2023-04-13T01:57:47.656Z,81.97
2023-04-13T02:00:57.568Z,81.64
2023-04-13T02:04:05.974Z,81.46
2023-04-13T02:07:12.653Z,81.37
2023-04-13T02:10:25.112Z,81.09
2023-04-13T02:13:31.239Z,80.93
2023-04-13T02:16:42.184Z,80.93
2023-04-13T02:19:48.165Z,80.70
2023-04-13T02:22:55.404Z,80.15
2023-04-13T02:26:01.427Z,80.44
2023-04-13T02:29:09.360Z,79.46
2023-04-13T02:32:19.182Z,79.50
2023-04-13T02:35:26.276Z,79.47
2023-04-13T02:38:32.746Z,79.17
2023-04-13T02:41:45.974Z,78.70
2023-04-13T02:44:57.241Z,78.87
2023-04-13T02:48:07.531Z,79.58
2023-04-13T02:51:13.534Z,79.57
2023-04-13T02:54:22.708Z,79.48
2023-04-13T02:57:30.017Z,78.93
2023-04-13T03:00:38.999Z,79.19
2023-04-13T03:03:52.630Z,79.78
2023-04-13T03:07:08.694Z,80.03
2023-04-13T03:10:19.403Z,80.11
2023-04-13T03:13:27.959Z,80.23
2023-04-13T03:16:36.614Z,80.12
2023-04-13T03:19:49.347Z,80.36
2023-04-13T03:22:59.012Z,80.35
2023-04-13T03:26:10.127Z,80.58
2023-04-13T03:29:18.980Z,80.13
2023-04-13T03:32:26.229Z,80.49
2023-04-13T03:35:41.040Z,80.40
2023-04-13T03:38:55.488Z,81.05
2023-04-13T03:42:03.870Z,81.49
2023-04-13T03:45:12.749Z,81.01
2023-04-13T03:48:19.327Z,81.11
2023-04-13T03:51:29.575Z,81.28
2023-04-13T03:54:35.568Z,81.79
2023-04-13T03:57:42.490Z,81.73
2023-04-13T04:00:53.937Z,82.38
2023-04-13T04:04:11.236Z,82.37
2023-04-13T04:07:23.484Z,82.43
2023-04-13T04:10:31.733Z,82.32
2023-04-13T04:13:38.631Z,82.03
2023-04-13T04:16:50.194Z,82.10
2023-04-13T04:19:58.420Z,81.91
2023-04-13T04:23:10.190Z,81.54
2023-04-13T04:26:26.139Z,80.33
2023-04-13T04:29:40.933Z,80.11
2023-04-13T04:33:02.074Z,79.76
2023-04-13T04:36:16.638Z,79.84
2023-04-13T04:39:44.837Z,78.41
2023-04-13T04:42:55.833Z,79.00
2023-04-13T04:46:16.511Z,78.29
2023-04-13T04:49:31.000Z,76.71
2023-04-13T04:52:37.948Z,75.80
2023-04-13T04:55:48.997Z,75.64
2023-04-13T04:59:13.400Z,74.37
2023-04-13T05:02:35.731Z,72.96
2023-04-13T05:05:42.815Z,70.91
2023-04-13T05:08:57.157Z,69.79
2023-04-13T05:12:07.894Z,69.68
2023-04-13T05:15:17.523Z,65.96
2023-04-13T05:18:25.867Z,67.10
2023-04-13T05:21:35.356Z,67.58
2023-04-13T05:24:41.680Z,69.01
2023-04-13T05:27:54.562Z,67.55
2023-04-13T05:31:04.634Z,68.07
2023-04-13T05:34:14.576Z,69.41
2023-04-13T05:37:28.883Z,68.88
2023-04-13T05:40:36.197Z,68.51
2023-04-13T05:43:46.507Z,68.33
2023-04-13T05:46:54.479Z,67.72
2023-04-13T05:50:00.872Z,67.23
2023-04-13T05:53:09.114Z,66.42
2023-04-13T05:56:27.088Z,66.20
2023-04-13T05:59:37.850Z,65.97
2023-04-13T06:02:44.394Z,64.47
2023-04-13T06:05:53.557Z,64.77
2023-04-13T06:08:59.876Z,65.87
2023-04-13T06:12:08.244Z,66.17
2023-04-13T06:15:18.678Z,66.68
2023-04-13T06:18:25.354Z,66.80
2023-04-13T06:21:32.524Z,66.84
2023-04-13T06:24:39.157Z,67.33
2023-04-13T06:27:50.212Z,66.17
2023-04-13T06:31:01.653Z,65.36
2023-04-13T06:34:08.654Z,65.28
2023-04-13T06:37:18.146Z,65.57
2023-04-13T06:40:27.953Z,64.94
2023-04-13T06:43:42.349Z,64.70
2023-04-13T06:47:14.005Z,63.54
2023-04-13T06:50:23.725Z,63.26
2023-04-13T06:53:30.301Z,62.52
2023-04-13T06:56:37.156Z,62.40
2023-04-13T06:59:43.714Z,60.79
2023-04-13T07:02:53.233Z,61.25
2023-04-13T07:06:00.472Z,60.15
2023-04-13T07:09:07.492Z,59.93
2023-04-13T07:12:14.476Z,58.94
2023-04-13T07:15:22.680Z,58.41
2023-04-13T07:18:31.926Z,57.54
2023-04-13T07:21:38.899Z,57.21
2023-04-13T07:24:44.877Z,56.71
2023-04-13T07:27:56.341Z,54.66
2023-04-13T07:31:03.808Z,51.50
2023-04-13T07:34:13.685Z,49.30
2023-04-13T07:37:24.528Z,46.11
2023-04-13T07:40:31.666Z,47.25
2023-04-13T07:43:43.366Z,46.36
2023-04-13T07:46:50.839Z,45.84
2023-04-13T07:50:01.869Z,45.76
2023-04-13T07:53:09.179Z,44.70
2023-04-13T07:56:16.336Z,44.11
2023-04-13T07:59:25.072Z,45.47
2023-04-13T08:02:32.421Z,45.26
2023-04-13T08:05:43.017Z,44.71
2023-04-13T08:08:50.333Z,40.12
2023-04-13T08:11:57.682Z,38.75
2023-04-13T08:15:03.602Z,38.14
2023-04-13T08:18:10.870Z,38.18
2023-04-13T08:21:20.090Z,38.62
2023-04-13T08:24:29.518Z,40.98
2023-04-13T08:27:36.359Z,38.93
2023-04-13T08:30:46.142Z,37.40
2023-04-13T08:33:52.743Z,36.74
2023-04-13T08:37:02.260Z,35.28
2023-04-13T08:40:14.471Z,35.88
2023-04-13T08:43:23.705Z,35.93
2023-04-13T08:46:30.173Z,35.96
2023-04-13T08:49:42.777Z,35.17
2023-04-13T08:52:59.234Z,36.05
2023-04-13T08:56:15.162Z,38.11
2023-04-13T08:59:24.174Z,39.06
2023-04-13T09:02:44.267Z,37.99
2023-04-13T09:06:11.679Z,38.35
2023-04-13T09:09:23.580Z,38.11
2023-04-13T09:12:34.203Z,35.93
2023-04-13T09:15:41.436Z,34.84
2023-04-13T09:19:06.193Z,33.87
2023-04-13T09:22:16.979Z,34.94
2023-04-13T09:25:28.716Z,34.12
2023-04-13T09:28:35.647Z,31.77
2023-04-13T09:31:45.235Z,30.34
2023-04-13T09:35:05.169Z,31.18
2023-04-13T09:38:15.655Z,30.06
2023-04-13T09:41:36.996Z,31.34
2023-04-13T09:44:43.233Z,30.07
2023-04-13T09:48:06.294Z,29.60
2023-04-13T09:51:13.298Z,30.94
2023-04-13T09:54:30.065Z,30.03
2023-04-13T09:57:49.517Z,32.24
2023-04-13T10:00:58.403Z,31.52
2023-04-13T10:04:04.668Z,29.53
2023-04-13T10:07:12.551Z,30.39
2023-04-13T10:10:19.856Z,29.79
2023-04-13T10:13:45.185Z,26.96
2023-04-13T10:17:28.643Z,26.81
2023-04-13T10:20:38.020Z,26.78
2023-04-13T10:23:45.933Z,27.51
2023-04-13T10:27:00.582Z,29.17
2023-04-13T10:30:22.053Z,27.27
2023-04-13T10:33:31.926Z,27.51
2023-04-13T10:36:47.303Z,29.41
2023-04-13T10:40:10.332Z,29.54
2023-04-13T10:43:27.451Z,29.66
2023-04-13T10:46:37.896Z,28.52
2023-04-13T10:49:46.453Z,30.90
2023-04-13T10:53:05.242Z,32.84
2023-04-13T10:56:19.591Z,33.69
2023-04-13T10:59:26.625Z,32.89
2023-04-13T11:02:36.529Z,32.37
2023-04-13T11:05:43.858Z,33.90
2023-04-13T11:08:50.034Z,33.98
2023-04-13T11:11:58.670Z,33.79
2023-04-13T11:15:04.605Z,35.58
2023-04-13T11:18:14.239Z,34.09
2023-04-13T11:21:21.426Z,36.32
2023-04-13T11:24:34.782Z,36.23
2023-04-13T11:27:41.354Z,36.80
2023-04-13T11:31:01.885Z,36.27
2023-04-13T11:34:13.501Z,33.96
2023-04-13T11:37:20.938Z,34.89
2023-04-13T11:40:29.429Z,36.63
2023-04-13T11:43:37.418Z,35.50
2023-04-13T11:46:43.717Z,34.67
2023-04-13T11:49:54.427Z,36.13
2023-04-13T11:53:04.066Z,34.91
2023-04-13T11:56:11.783Z,37.20
2023-04-13T11:59:18.121Z,36.79
2023-04-13T12:02:30.078Z,37.42
2023-04-13T12:05:42.554Z,38.47
2023-04-13T12:08:56.143Z,39.57
2023-04-13T12:12:46.484Z,40.49
2023-04-13T12:16:05.432Z,40.70
2023-04-13T12:19:15.315Z,40.77
2023-04-13T12:22:38.808Z,41.42
2023-04-13T12:26:25.524Z,42.55
2023-04-13T12:29:29.900Z,44.23
2023-04-13T12:32:37.200Z,44.12
2023-04-13T12:35:44.051Z,43.97
2023-04-13T12:38:52.564Z,44.52
2023-04-13T12:41:59.852Z,45.12
2023-04-13T12:45:08.295Z,45.52
2023-04-13T12:48:15.363Z,45.78
2023-04-13T12:51:21.517Z,47.14
2023-04-13T12:54:31.316Z,47.21
2023-04-13T12:57:37.274Z,46.88
2023-04-13T13:00:44.263Z,47.90
2023-04-13T13:03:50.394Z,48.62
2023-04-13T13:07:05.717Z,49.12
2023-04-13T13:10:29.084Z,48.90
2023-04-13T13:13:36.969Z,49.28
2023-04-13T13:16:43.268Z,49.90
2023-04-13T13:19:50.166Z,49.82
2023-04-13T13:22:56.140Z,49.72
2023-04-13T13:26:23.267Z,50.97
2023-04-13T13:29:33.649Z,53.10
2023-04-13T13:32:40.610Z,54.33
2023-04-13T13:35:50.300Z,54.75
2023-04-13T13:38:57.431Z,55.88
2023-04-13T13:42:06.405Z,57.88
2023-04-13T13:45:14.260Z,60.39
2023-04-13T13:48:21.991Z,61.30
2023-04-13T13:51:38.501Z,61.81
2023-04-13T13:54:53.535Z,62.64
2023-04-13T13:58:03.689Z,63.64
2023-04-13T14:01:10.540Z,65.20
2023-04-13T14:04:17.588Z,63.98
2023-04-13T14:07:24.636Z,64.45
2023-04-13T14:10:31.480Z,64.82
2023-04-13T14:13:40.101Z,65.67
2023-04-13T14:16:46.873Z,66.59
2023-04-13T14:19:52.949Z,67.12
2023-04-13T14:23:01.290Z,67.79
2023-04-13T14:26:07.661Z,68.34
2023-04-13T14:29:21.666Z,68.90
2023-04-13T14:32:29.756Z,69.89
2023-04-13T14:35:40.058Z,70.33
2023-04-13T14:38:46.004Z,71.41
2023-04-13T14:41:53.792Z,71.60
2023-04-13T14:45:11.350Z,72.47
2023-04-13T14:48:28.752Z,73.75
2023-04-13T14:51:34.974Z,73.70
2023-04-13T14:54:42.330Z,74.24
2023-04-13T14:57:48.473Z,74.42
2023-04-13T15:00:57.994Z,74.73
2023-04-13T15:04:04.635Z,75.42
2023-04-13T15:07:18.401Z,75.72
2023-04-13T15:10:33.650Z,76.20
2023-04-13T15:13:42.937Z,77.02
2023-04-13T15:16:51.820Z,76.45
2023-04-13T15:20:19.356Z,76.38
2023-04-13T15:23:41.612Z,76.50
2023-04-13T15:26:52.661Z,76.94
2023-04-13T15:30:10.391Z,76.26
2023-04-13T15:33:40.305Z,77.18
2023-04-13T15:36:46.373Z,77.43
2023-04-13T15:39:53.516Z,77.80
2023-04-13T15:42:59.706Z,77.41
2023-04-13T15:46:06.779Z,77.54
2023-04-13T15:49:15.522Z,78.07
2023-04-13T15:52:29.243Z,78.03
2023-04-13T15:55:36.045Z,78.13
2023-04-13T15:58:43.093Z,78.30
2023-04-13T16:01:55.280Z,79.26
2023-04-13T16:05:06.070Z,79.31
2023-04-13T16:08:12.536Z,79.34
2023-04-13T16:11:28.040Z,78.72
2023-04-13T16:14:42.446Z,79.50
2023-04-13T16:17:49.435Z,79.67
2023-04-13T16:21:09.362Z,79.97
2023-04-13T16:24:21.476Z,80.43
2023-04-13T16:27:30.731Z,81.09
2023-04-13T16:30:37.807Z,80.72
2023-04-13T16:33:43.898Z,80.89
2023-04-13T16:36:53.526Z,81.45
2023-04-13T16:39:59.517Z,82.07
2023-04-13T16:43:14.987Z,81.83
2023-04-13T16:46:22.194Z,82.87
2023-04-13T16:49:32.916Z,83.18
2023-04-13T16:52:42.029Z,84.04
2023-04-13T16:55:59.665Z,83.91
2023-04-13T16:59:05.675Z,83.26
2023-04-13T17:02:24.637Z,83.39
2023-04-13T17:05:34.295Z,83.72
2023-04-13T17:08:43.773Z,83.91
2023-04-13T17:11:49.734Z,83.57
2023-04-13T17:14:57.875Z,84.21
2023-04-13T17:18:04.641Z,84.20
2023-04-13T17:21:11.835Z,84.18
2023-04-13T17:24:20.518Z,84.54
2023-04-13T17:27:27.446Z,84.54
2023-04-13T17:30:33.718Z,84.21
2023-04-13T17:33:45.387Z,84.24
2023-04-13T17:36:52.003Z,84.76
2023-04-13T17:40:02.551Z,84.28
2023-04-13T17:43:09.528Z,84.05
2023-04-13T17:46:16.582Z,83.64
2023-04-13T17:49:26.487Z,83.66
2023-04-13T17:52:33.271Z,83.83
2023-04-13T17:55:42.307Z,84.44
2023-04-13T17:58:49.161Z,84.06
2023-04-13T18:01:57.160Z,84.35
2023-04-13T18:05:04.122Z,85.06
2023-04-13T18:08:10.015Z,85.16
2023-04-13T18:11:19.591Z,85.03
2023-04-13T18:14:25.677Z,84.46
2023-04-13T18:17:32.516Z,84.20
2023-04-13T18:20:38.633Z,84.96
2023-04-13T18:23:46.528Z,83.93
2023-04-13T18:26:55.642Z,83.89
2023-04-13T18:30:02.633Z,84.60
2023-04-13T18:33:08.729Z,84.87
2023-04-13T18:36:18.752Z,85.30
2023-04-13T18:39:24.890Z,85.11
2023-04-13T18:42:34.506Z,85.43
2023-04-13T18:45:40.842Z,84.52
2023-04-13T18:48:47.985Z,85.44
2023-04-13T18:51:54.161Z,86.29
2023-04-13T18:55:01.183Z,86.01
2023-04-13T18:58:09.935Z,86.14
2023-04-13T19:01:20.256Z,86.58
2023-04-13T19:04:29.037Z,86.66
2023-04-13T19:07:36.264Z,86.25
2023-04-13T19:10:42.278Z,86.17
2023-04-13T19:13:51.752Z,86.32
2023-04-13T19:16:57.786Z,86.68
2023-04-13T19:20:06.631Z,85.99
2023-04-13T19:23:12.709Z,85.73
2023-04-13T19:26:19.659Z,86.27
2023-04-13T19:29:30.546Z,85.71
2023-04-13T19:32:37.355Z,86.00
2023-04-13T19:35:43.450Z,86.36
2023-04-13T19:38:52.109Z,86.17
2023-04-13T19:41:58.625Z,86.47
2023-04-13T19:45:09.095Z,86.20
2023-04-13T19:48:23.158Z,86.35
2023-04-13T19:51:30.268Z,85.60
2023-04-13T19:54:36.442Z,85.84
2023-04-13T19:57:44.087Z,86.16
2023-04-13T20:00:52.678Z,86.36
2023-04-13T20:03:59.966Z,85.74
2023-04-13T20:07:06.791Z,86.27
2023-04-13T20:10:15.592Z,86.10
2023-04-13T20:13:21.449Z,86.60
2023-04-13T20:16:30.825Z,86.06
2023-04-13T20:19:36.989Z,86.09
2023-04-13T20:22:43.850Z,86.50
2023-04-13T20:25:49.748Z,85.95
2023-04-13T20:28:57.179Z,86.34
2023-04-13T20:32:05.806Z,86.13
2023-04-13T20:35:13.395Z,85.49
2023-04-13T20:38:19.497Z,85.70
2023-04-13T20:41:26.598Z,85.44
2023-04-13T20:44:38.168Z,85.89
2023-04-13T20:47:53.325Z,85.77
2023-04-13T20:50:59.314Z,85.93
2023-04-13T20:54:10.394Z,86.47
2023-04-13T20:57:17.276Z,86.19
2023-04-13T21:00:34.461Z,85.91
2023-04-13T21:03:43.241Z,85.89
2023-04-13T21:06:50.474Z,85.90
2023-04-13T21:09:57.221Z,86.39
2023-04-13T21:13:05.086Z,86.17
2023-04-13T21:16:12.420Z,85.27
2023-04-13T21:19:21.871Z,84.98
2023-04-13T21:22:27.919Z,85.24
2023-04-13T21:25:34.650Z,86.25
2023-04-13T21:28:46.480Z,85.62
2023-04-13T21:31:53.369Z,85.96
2023-04-13T21:35:08.484Z,85.96
2023-04-13T21:38:19.036Z,85.75
2023-04-13T21:41:25.913Z,85.61
2023-04-13T21:44:32.973Z,85.35
2023-04-13T21:47:40.029Z,85.65
2023-04-13T21:50:53.622Z,86.33
2023-04-13T21:54:00.130Z,86.53
2023-04-13T21:57:07.711Z,85.80
2023-04-13T22:00:16.593Z,85.69
2023-04-13T22:03:23.476Z,86.43
2023-04-13T22:06:32.980Z,85.22
2023-04-13T22:09:47.427Z,84.17
2023-04-13T22:12:53.477Z,83.94
2023-04-13T22:16:00.417Z,84.19
2023-04-13T22:19:09.881Z,83.60
2023-04-13T22:22:19.442Z,84.50
2023-04-13T22:25:28.240Z,83.72
2023-04-13T22:28:35.535Z,83.98
2023-04-13T22:31:41.474Z,84.42
2023-04-13T22:34:48.261Z,83.91
2023-04-13T22:37:56.950Z,83.82
2023-04-13T22:41:11.756Z,84.16
2023-04-13T22:44:22.334Z,84.83
2023-04-13T22:47:29.106Z,84.89
2023-04-13T22:50:35.108Z,84.10
2023-04-13T22:53:45.527Z,84.53
2023-04-13T22:56:51.629Z,84.16
2023-04-13T23:00:08.496Z,84.87
2023-04-13T23:03:16.539Z,84.70
2023-04-13T23:06:23.670Z,84.78
2023-04-13T23:09:33.989Z,84.64
2023-04-13T23:12:41.038Z,85.14
2023-04-13T23:15:46.859Z,85.28
2023-04-13T23:18:53.676Z,85.36
2023-04-13T23:21:59.532Z,85.82
2023-04-13T23:25:12.629Z,85.94
2023-04-13T23:28:18.522Z,85.74
2023-04-13T23:31:25.387Z,86.03
2023-04-13T23:34:43.399Z,85.72
2023-04-13T23:37:50.194Z,86.15
2023-04-13T23:41:00.137Z,86.17
2023-04-13T23:44:07.028Z,86.50
2023-04-13T23:47:13.037Z,86.91
2023-04-13T23:50:20.350Z,87.25
2023-04-13T23:53:26.268Z,87.56
2023-04-13T23:56:35.866Z,86.93
2023-04-13T23:59:42.013Z,87.06
